createdAt,value
2023-10-24T00:00:11.830Z,65.27
2023-10-24T00:01:13.528Z,65.50
2023-10-24T00:02:15.381Z,65.69
2023-10-24T00:03:17.107Z,65.87
2023-10-24T00:04:18.931Z,65.40
2023-10-24T00:05:20.737Z,65.16
2023-10-24T00:06:22.397Z,65.00
2023-10-24T00:07:24.139Z,64.26
2023-10-24T00:08:25.742Z,63.49
2023-10-24T00:09:27.426Z,63.90
2023-10-24T00:10:29.237Z,63.97
2023-10-24T00:11:30.985Z,63.79
2023-10-24T00:12:32.666Z,64.28
2023-10-24T00:13:34.406Z,63.57
2023-10-24T00:14:36.175Z,64.01
2023-10-24T00:15:37.819Z,64.50
2023-10-24T00:16:39.466Z,64.98
2023-10-24T00:17:41.230Z,64.75
2023-10-24T00:18:43.671Z,64.91
2023-10-24T00:19:45.391Z,64.96
2023-10-24T00:20:47.118Z,64.64
2023-10-24T00:21:48.758Z,65.01
2023-10-24T00:22:50.353Z,65.02
2023-10-24T00:23:53.340Z,65.23
2023-10-24T00:24:55.062Z,64.57
2023-10-24T00:25:56.738Z,64.37
2023-10-24T00:26:59.057Z,64.72
2023-10-24T00:28:00.822Z,64.80
2023-10-24T00:29:02.422Z,64.03
2023-10-24T00:30:04.601Z,64.62
2023-10-24T00:31:08.578Z,65.38
2023-10-24T00:32:12.714Z,65.52
2023-10-24T00:33:14.562Z,65.79
2023-10-24T00:34:17.837Z,65.97
2023-10-24T00:35:19.524Z,66.17
2023-10-24T00:36:21.661Z,66.43
2023-10-24T00:37:23.352Z,66.21
2023-10-24T00:38:24.922Z,66.25
2023-10-24T00:39:26.532Z,66.31
2023-10-24T00:40:28.287Z,66.13
2023-10-24T00:41:30.108Z,65.73
2023-10-24T00:42:31.713Z,65.79
2023-10-24T00:43:33.450Z,66.65
2023-10-24T00:44:35.228Z,66.98
2023-10-24T00:45:37.236Z,66.63
2023-10-24T00:46:41.091Z,66.98
2023-10-24T00:47:42.884Z,67.18
2023-10-24T00:48:44.673Z,67.19
2023-10-24T00:49:46.801Z,67.21
2023-10-24T00:50:48.708Z,67.29
2023-10-24T00:51:50.458Z,67.15
2023-10-24T00:52:52.170Z,67.62
2023-10-24T00:53:55.262Z,67.45
2023-10-24T00:54:57.415Z,67.35
2023-10-24T00:55:59.810Z,66.71
2023-10-24T00:57:04.509Z,67.22
2023-10-24T00:58:07.620Z,67.33
2023-10-24T00:59:09.637Z,67.27
2023-10-24T01:00:12.607Z,67.42
2023-10-24T01:01:15.962Z,67.36
2023-10-24T01:02:18.579Z,67.64
2023-10-24T01:03:20.663Z,67.54
2023-10-24T01:04:23.329Z,68.10
2023-10-24T01:05:25.720Z,67.93
2023-10-24T01:06:27.489Z,67.75
2023-10-24T01:07:29.421Z,67.68
2023-10-24T01:08:31.005Z,68.13
2023-10-24T01:09:32.980Z,68.05
2023-10-24T01:10:34.869Z,67.94
2023-10-24T01:11:36.534Z,67.76
2023-10-24T01:12:38.873Z,68.28
2023-10-24T01:13:40.962Z,68.33
2023-10-24T01:14:42.838Z,68.74
2023-10-24T01:15:44.577Z,68.43
2023-10-24T01:16:46.799Z,68.28
2023-10-24T01:17:52.428Z,68.65
2023-10-24T01:18:54.066Z,68.53
2023-10-24T01:19:55.653Z,68.75
2023-10-24T01:20:57.211Z,68.42
2023-10-24T01:21:58.929Z,68.36
2023-10-24T01:23:01.920Z,67.97
2023-10-24T01:24:03.667Z,68.49
2023-10-24T01:25:14.254Z,68.40
2023-10-24T01:26:18.433Z,68.07
2023-10-24T01:27:22.363Z,67.98
2023-10-24T01:28:26.925Z,67.63
2023-10-24T01:29:28.652Z,67.31
2023-10-24T01:30:30.256Z,66.90
2023-10-24T01:31:32.411Z,67.10
2023-10-24T01:32:34.213Z,66.79
2023-10-24T01:33:35.867Z,65.91
2023-10-24T01:34:37.486Z,66.41
2023-10-24T01:35:39.192Z,65.98
2023-10-24T01:36:40.760Z,65.97
2023-10-24T01:37:42.455Z,66.49
2023-10-24T01:38:44.108Z,65.90
2023-10-24T01:39:45.695Z,64.92
2023-10-24T01:40:47.351Z,65.94
2023-10-24T01:41:48.930Z,65.79
2023-10-24T01:42:50.566Z,64.80
2023-10-24T01:43:53.200Z,65.78
2023-10-24T01:44:55.018Z,65.58
2023-10-24T01:45:56.630Z,65.97
2023-10-24T01:46:58.291Z,65.91
2023-10-24T01:47:59.941Z,66.62
2023-10-24T01:49:01.587Z,66.60
2023-10-24T01:50:04.487Z,66.47
2023-10-24T01:51:06.159Z,65.94
2023-10-24T01:52:07.748Z,66.52
2023-10-24T01:53:09.366Z,66.27
2023-10-24T01:54:10.953Z,66.71
2023-10-24T01:55:12.714Z,66.96
2023-10-24T01:56:14.685Z,66.38
2023-10-24T01:57:17.043Z,66.19
2023-10-24T01:58:18.672Z,66.26
2023-10-24T01:59:20.308Z,65.55
2023-10-24T02:00:22.083Z,65.51
2023-10-24T02:01:23.744Z,65.08
2023-10-24T02:02:27.794Z,64.02
2023-10-24T02:03:29.704Z,64.88
2023-10-24T02:04:31.417Z,65.37
2023-10-24T02:05:33.071Z,65.63
2023-10-24T02:06:34.722Z,65.27
2023-10-24T02:07:36.365Z,66.00
2023-10-24T02:08:38.229Z,66.42
2023-10-24T02:09:39.771Z,65.52
2023-10-24T02:10:41.328Z,64.91
2023-10-24T02:11:42.950Z,65.07
2023-10-24T02:12:44.614Z,65.13
2023-10-24T02:13:46.318Z,65.70
2023-10-24T02:14:47.900Z,65.13
2023-10-24T02:15:49.547Z,64.27
2023-10-24T02:16:51.268Z,64.90
2023-10-24T02:17:52.976Z,65.06
2023-10-24T02:18:54.551Z,65.39
2023-10-24T02:19:56.168Z,65.80
2023-10-24T02:20:57.733Z,66.22
2023-10-24T02:21:59.334Z,66.04
2023-10-24T02:23:01.120Z,65.80
2023-10-24T02:24:02.736Z,66.53
2023-10-24T02:25:04.686Z,66.76
2023-10-24T02:26:06.365Z,66.67
2023-10-24T02:27:08.209Z,66.80
2023-10-24T02:28:09.834Z,66.62
2023-10-24T02:29:11.454Z,67.19
2023-10-24T02:30:13.134Z,67.24
2023-10-24T02:31:15.744Z,67.50
2023-10-24T02:32:18.090Z,66.71
2023-10-24T02:33:19.848Z,66.96
2023-10-24T02:34:22.491Z,67.81
2023-10-24T02:35:24.091Z,67.39
2023-10-24T02:36:25.688Z,67.58
2023-10-24T02:37:27.670Z,67.63
2023-10-24T02:38:29.261Z,67.40
2023-10-24T02:39:30.915Z,67.58
2023-10-24T02:40:32.492Z,66.77
2023-10-24T02:41:34.168Z,67.29
2023-10-24T02:42:36.077Z,67.39
2023-10-24T02:43:37.761Z,67.01
2023-10-24T02:44:39.664Z,67.39
2023-10-24T02:45:41.478Z,68.01
2023-10-24T02:46:43.228Z,67.86
2023-10-24T02:47:45.019Z,67.80
2023-10-24T02:48:47.322Z,67.92
2023-10-24T02:49:49.040Z,67.68
2023-10-24T02:50:56.913Z,67.75
2023-10-24T02:51:58.486Z,67.12
2023-10-24T02:53:02.499Z,66.43
2023-10-24T02:54:04.362Z,67.13
2023-10-24T02:55:07.423Z,66.74
2023-10-24T02:56:09.102Z,67.15
2023-10-24T02:57:10.867Z,67.53
2023-10-24T02:58:12.713Z,67.75
2023-10-24T02:59:14.375Z,67.62
2023-10-24T03:00:16.588Z,67.54
2023-10-24T03:01:19.109Z,67.73
2023-10-24T03:02:21.466Z,67.97
2023-10-24T03:03:23.196Z,68.22
2023-10-24T03:04:24.956Z,67.99
2023-10-24T03:05:27.985Z,67.99
2023-10-24T03:06:29.581Z,68.15
2023-10-24T03:07:31.748Z,67.92
2023-10-24T03:08:33.448Z,67.84
2023-10-24T03:09:36.371Z,68.45
2023-10-24T03:10:41.915Z,68.27
2023-10-24T03:11:43.594Z,68.21
2023-10-24T03:12:45.153Z,67.19
2023-10-24T03:13:46.982Z,67.85
2023-10-24T03:14:48.645Z,67.77
2023-10-24T03:15:50.213Z,67.72
2023-10-24T03:16:51.923Z,67.01
2023-10-24T03:17:53.616Z,67.18
2023-10-24T03:18:55.293Z,67.36
2023-10-24T03:19:56.989Z,67.60
2023-10-24T03:20:59.230Z,67.53
2023-10-24T03:22:01.353Z,67.62
2023-10-24T03:23:03.260Z,67.57
2023-10-24T03:24:05.107Z,67.67
2023-10-24T03:25:07.525Z,67.50
2023-10-24T03:26:09.180Z,66.79
2023-10-24T03:27:14.042Z,66.35
2023-10-24T03:28:15.961Z,66.92
2023-10-24T03:29:17.594Z,67.19
2023-10-24T03:30:19.320Z,67.67
2023-10-24T03:31:21.069Z,68.21
2023-10-24T03:32:22.736Z,68.55
2023-10-24T03:33:24.327Z,68.48
2023-10-24T03:34:27.022Z,68.44
2023-10-24T03:35:28.653Z,68.25
2023-10-24T03:36:30.355Z,67.71
2023-10-24T03:37:32.251Z,67.53
2023-10-24T03:38:33.920Z,67.58
2023-10-24T03:39:35.696Z,67.40
2023-10-24T03:40:39.391Z,67.88
2023-10-24T03:41:41.084Z,68.42
2023-10-24T03:42:42.808Z,68.73
2023-10-24T03:43:49.646Z,68.24
2023-10-24T03:44:52.654Z,67.81
2023-10-24T03:45:54.279Z,67.73
2023-10-24T03:46:56.015Z,68.54
2023-10-24T03:47:57.994Z,68.67
2023-10-24T03:48:59.672Z,68.26
2023-10-24T03:50:01.277Z,67.84
2023-10-24T03:51:03.150Z,67.85
2023-10-24T03:52:06.575Z,68.28
2023-10-24T03:53:08.633Z,68.50
2023-10-24T03:54:10.462Z,68.52
2023-10-24T03:55:12.824Z,68.82
2023-10-24T03:56:14.400Z,68.81
2023-10-24T03:57:15.952Z,68.15
2023-10-24T03:58:17.607Z,68.35
2023-10-24T03:59:19.200Z,67.58
2023-10-24T04:00:21.026Z,67.61
2023-10-24T04:01:22.630Z,68.02
2023-10-24T04:02:24.297Z,68.23
2023-10-24T04:03:26.130Z,68.43
2023-10-24T04:04:27.844Z,68.73
2023-10-24T04:05:33.615Z,68.42
2023-10-24T04:06:35.604Z,68.86
2023-10-24T04:07:37.246Z,68.90
2023-10-24T04:08:39.796Z,69.14
2023-10-24T04:09:41.460Z,68.42
2023-10-24T04:10:43.165Z,68.94
2023-10-24T04:11:44.796Z,68.30
2023-10-24T04:12:46.410Z,69.04
2023-10-24T04:13:48.177Z,69.13
2023-10-24T04:14:49.829Z,68.95
2023-10-24T04:15:58.097Z,69.10
2023-10-24T04:16:59.789Z,69.36
2023-10-24T04:18:01.516Z,69.28
2023-10-24T04:19:03.508Z,69.15
2023-10-24T04:20:07.674Z,68.76
2023-10-24T04:21:09.332Z,68.11
2023-10-24T04:22:10.914Z,67.59
2023-10-24T04:23:18.017Z,68.04
2023-10-24T04:24:19.572Z,67.66
2023-10-24T04:25:21.277Z,67.78
2023-10-24T04:26:22.932Z,68.09
2023-10-24T04:27:25.984Z,68.47
2023-10-24T04:28:27.615Z,68.22
2023-10-24T04:29:30.985Z,68.00
2023-10-24T04:30:32.613Z,67.89
2023-10-24T04:31:34.740Z,67.76
2023-10-24T04:32:36.516Z,68.31
2023-10-24T04:33:38.685Z,67.80
2023-10-24T04:34:40.616Z,68.46
2023-10-24T04:35:48.384Z,68.60
2023-10-24T04:36:50.114Z,69.00
2023-10-24T04:37:51.973Z,68.96
2023-10-24T04:38:53.580Z,68.79
2023-10-24T04:39:56.143Z,68.47
2023-10-24T04:40:57.788Z,68.91
2023-10-24T04:41:59.622Z,68.91
2023-10-24T04:43:01.276Z,68.80
2023-10-24T04:44:02.842Z,69.62
2023-10-24T04:45:04.726Z,69.65
2023-10-24T04:46:06.373Z,69.48
2023-10-24T04:47:08.000Z,69.01
2023-10-24T04:48:09.896Z,68.81
2023-10-24T04:49:11.472Z,68.52
2023-10-24T04:50:14.539Z,68.43
2023-10-24T04:51:16.212Z,68.10
2023-10-24T04:52:17.870Z,67.80
2023-10-24T04:53:20.348Z,67.68
2023-10-24T04:54:22.070Z,68.40
2023-10-24T04:55:27.684Z,68.06
2023-10-24T04:56:29.987Z,67.47
2023-10-24T04:57:31.647Z,67.36
2023-10-24T04:58:33.247Z,67.82
2023-10-24T04:59:35.126Z,67.60
2023-10-24T05:00:36.738Z,68.31
2023-10-24T05:01:41.486Z,67.88
2023-10-24T05:02:45.300Z,67.82
2023-10-24T05:03:46.922Z,68.15
2023-10-24T05:04:48.713Z,67.42
2023-10-24T05:05:50.480Z,66.96
2023-10-24T05:06:52.412Z,68.10
2023-10-24T05:07:54.138Z,68.55
2023-10-24T05:08:56.582Z,68.50
2023-10-24T05:09:58.193Z,68.24
2023-10-24T05:10:59.836Z,67.40
2023-10-24T05:12:01.444Z,67.53
2023-10-24T05:13:03.176Z,68.07
2023-10-24T05:14:04.815Z,67.67
2023-10-24T05:15:06.913Z,67.60
2023-10-24T05:16:08.516Z,67.55
2023-10-24T05:17:10.177Z,66.70
2023-10-24T05:18:12.861Z,66.68
2023-10-24T05:19:14.551Z,66.97
2023-10-24T05:20:18.378Z,66.46
2023-10-24T05:21:20.019Z,66.74
2023-10-24T05:22:21.644Z,66.95
2023-10-24T05:23:23.260Z,66.41
2023-10-24T05:24:24.860Z,66.60
2023-10-24T05:25:26.464Z,66.27
2023-10-24T05:26:28.160Z,66.18
2023-10-24T05:27:30.252Z,66.65
2023-10-24T05:28:33.496Z,67.36
2023-10-24T05:29:36.053Z,67.92
2023-10-24T05:30:40.385Z,68.09
2023-10-24T05:31:42.090Z,68.34
2023-10-24T05:32:45.013Z,68.83
2023-10-24T05:33:46.823Z,68.50
2023-10-24T05:34:48.496Z,68.34
2023-10-24T05:35:50.310Z,67.84
2023-10-24T05:36:52.036Z,68.06
2023-10-24T05:37:53.752Z,68.02
2023-10-24T05:38:56.823Z,67.86
2023-10-24T05:39:58.519Z,68.15
2023-10-24T05:41:01.257Z,68.42
2023-10-24T05:42:03.008Z,68.44
2023-10-24T05:43:05.970Z,67.96
2023-10-24T05:44:07.561Z,67.78
2023-10-24T05:45:09.808Z,67.75
2023-10-24T05:46:11.508Z,68.45
2023-10-24T05:47:13.190Z,69.41
2023-10-24T05:48:14.756Z,69.72
2023-10-24T05:49:16.452Z,68.80
2023-10-24T05:50:20.158Z,68.39
2023-10-24T05:51:30.201Z,68.09
2023-10-24T05:52:32.804Z,68.78
2023-10-24T05:53:34.446Z,69.27
2023-10-24T05:54:37.320Z,68.52
2023-10-24T05:55:40.823Z,68.97
2023-10-24T05:56:42.498Z,68.44
2023-10-24T05:57:44.194Z,69.21
2023-10-24T05:58:46.067Z,68.54
2023-10-24T05:59:47.664Z,67.69
2023-10-24T06:00:49.263Z,67.06
2023-10-24T06:01:50.966Z,66.52
2023-10-24T06:02:52.697Z,66.33
2023-10-24T06:03:54.373Z,66.07
2023-10-24T06:04:56.056Z,65.49
2023-10-24T06:05:57.684Z,64.71
2023-10-24T06:06:59.279Z,64.50
2023-10-24T06:08:01.011Z,64.27
2023-10-24T06:09:03.872Z,62.96
2023-10-24T06:10:06.921Z,63.00
2023-10-24T06:11:08.720Z,62.43
2023-10-24T06:12:10.425Z,62.27
2023-10-24T06:13:12.284Z,61.68
2023-10-24T06:14:13.884Z,61.51
2023-10-24T06:15:15.499Z,60.98
2023-10-24T06:16:18.556Z,61.52
2023-10-24T06:17:20.689Z,61.28
2023-10-24T06:18:24.375Z,60.90
2023-10-24T06:19:28.247Z,60.61
2023-10-24T06:20:29.921Z,60.42
2023-10-24T06:21:31.541Z,60.10
2023-10-24T06:22:33.166Z,60.48
2023-10-24T06:23:36.356Z,59.97
2023-10-24T06:24:38.433Z,59.53
2023-10-24T06:25:43.599Z,59.57
2023-10-24T06:26:45.257Z,60.28
2023-10-24T06:27:46.891Z,59.22
2023-10-24T06:28:48.612Z,58.88
2023-10-24T06:29:50.258Z,59.35
2023-10-24T06:30:59.102Z,60.47
2023-10-24T06:32:00.916Z,60.54
2023-10-24T06:33:03.707Z,60.26
2023-10-24T06:34:05.446Z,60.08
2023-10-24T06:35:07.382Z,59.39
2023-10-24T06:36:09.518Z,59.92
2023-10-24T06:37:11.205Z,60.03
2023-10-24T06:38:12.890Z,59.17
2023-10-24T06:39:14.477Z,58.05
2023-10-24T06:40:16.231Z,59.23
2023-10-24T06:41:17.848Z,57.80
2023-10-24T06:42:19.413Z,57.93
2023-10-24T06:43:22.067Z,58.36
2023-10-24T06:44:24.081Z,58.46
2023-10-24T06:45:27.427Z,57.20
2023-10-24T06:46:30.512Z,58.26
2023-10-24T06:47:32.131Z,57.69
2023-10-24T06:48:33.803Z,58.21
2023-10-24T06:49:35.503Z,57.80
2023-10-24T06:50:37.278Z,58.68
2023-10-24T06:51:38.882Z,58.72
2023-10-24T06:52:43.426Z,59.31
2023-10-24T06:53:45.262Z,58.42
2023-10-24T06:54:46.913Z,57.21
2023-10-24T06:55:48.509Z,58.73
2023-10-24T06:56:50.200Z,57.67
2023-10-24T06:57:52.161Z,57.01
2023-10-24T06:58:53.831Z,55.15
2023-10-24T06:59:56.656Z,55.14
2023-10-24T07:00:58.382Z,51.14
2023-10-24T07:02:00.657Z,50.61
2023-10-24T07:03:02.501Z,50.88
2023-10-24T07:04:04.476Z,48.37
2023-10-24T07:05:06.413Z,47.47
2023-10-24T07:06:08.146Z,47.72
2023-10-24T07:07:09.901Z,49.00
2023-10-24T07:08:11.468Z,48.40
2023-10-24T07:09:14.099Z,46.51
2023-10-24T07:10:16.295Z,46.17
2023-10-24T07:11:17.926Z,45.41
2023-10-24T07:12:21.705Z,46.48
2023-10-24T07:13:23.404Z,46.56
2023-10-24T07:14:25.192Z,45.37
2023-10-24T07:15:26.822Z,46.65
2023-10-24T07:16:28.693Z,46.39
2023-10-24T07:17:31.497Z,43.91
2023-10-24T07:18:33.128Z,43.24
2023-10-24T07:19:34.793Z,41.96
2023-10-24T07:20:40.210Z,41.37
2023-10-24T07:21:41.839Z,41.20
2023-10-24T07:22:43.477Z,39.64
2023-10-24T07:23:45.168Z,39.12
2023-10-24T07:24:46.783Z,39.41
2023-10-24T07:25:57.136Z,38.28
2023-10-24T07:26:58.734Z,37.38
2023-10-24T07:28:00.344Z,36.96
2023-10-24T07:29:02.056Z,37.25
2023-10-24T07:30:04.036Z,36.95
2023-10-24T07:31:05.673Z,34.84
2023-10-24T07:32:07.433Z,36.57
2023-10-24T07:33:09.074Z,35.55
2023-10-24T07:34:10.685Z,34.90
2023-10-24T07:35:12.302Z,35.57
2023-10-24T07:36:13.905Z,34.87
2023-10-24T07:37:15.607Z,33.38
2023-10-24T07:38:17.214Z,33.43
2023-10-24T07:39:18.842Z,32.92
2023-10-24T07:40:20.641Z,33.54
2023-10-24T07:41:22.428Z,31.82
2023-10-24T07:42:24.057Z,32.81
2023-10-24T07:43:25.743Z,31.94
2023-10-24T07:44:27.421Z,33.23
2023-10-24T07:45:29.062Z,35.04
2023-10-24T07:46:30.798Z,32.33
2023-10-24T07:47:32.901Z,32.15
2023-10-24T07:48:34.672Z,32.92
2023-10-24T07:49:36.660Z,31.07
2023-10-24T07:50:38.310Z,31.75
2023-10-24T07:51:39.878Z,31.85
2023-10-24T07:52:41.596Z,30.88
2023-10-24T07:53:43.198Z,32.11
2023-10-24T07:54:44.763Z,31.19
2023-10-24T07:55:46.508Z,30.62
2023-10-24T07:56:48.232Z,30.67
2023-10-24T07:57:52.964Z,30.37
2023-10-24T07:58:54.605Z,30.22
2023-10-24T07:59:56.243Z,30.80
2023-10-24T08:00:57.903Z,27.83
2023-10-24T08:02:00.064Z,28.19
2023-10-24T08:03:02.103Z,29.17
2023-10-24T08:04:03.981Z,30.31
2023-10-24T08:05:06.157Z,30.08
2023-10-24T08:06:07.812Z,29.20
2023-10-24T08:07:09.391Z,29.40
2023-10-24T08:08:10.975Z,29.48
2023-10-24T08:09:12.597Z,29.50
2023-10-24T08:10:14.209Z,29.54
2023-10-24T08:11:15.774Z,29.83
2023-10-24T08:12:17.379Z,29.61
2023-10-24T08:13:18.929Z,28.94
2023-10-24T08:14:20.602Z,29.89
2023-10-24T08:15:22.246Z,29.37
2023-10-24T08:16:23.978Z,28.20
2023-10-24T08:17:25.769Z,26.75
2023-10-24T08:18:27.446Z,27.71
2023-10-24T08:19:29.154Z,29.68
2023-10-24T08:20:30.773Z,28.63
2023-10-24T08:21:32.412Z,29.25
2023-10-24T08:22:34.075Z,28.26
2023-10-24T08:23:35.759Z,28.58
2023-10-24T08:24:37.333Z,29.27
2023-10-24T08:25:38.941Z,27.86
2023-10-24T08:26:41.799Z,28.37
2023-10-24T08:27:46.679Z,27.89
2023-10-24T08:28:48.423Z,27.00
2023-10-24T08:29:50.039Z,27.24
2023-10-24T08:30:51.641Z,26.78
2023-10-24T08:32:00.717Z,26.87
2023-10-24T08:33:03.084Z,27.12
2023-10-24T08:34:04.728Z,26.77
2023-10-24T08:35:06.658Z,25.81
2023-10-24T08:36:08.232Z,25.28
2023-10-24T08:37:10.219Z,26.11
2023-10-24T08:38:13.139Z,25.82
2023-10-24T08:39:15.221Z,25.56
2023-10-24T08:40:16.871Z,25.30
2023-10-24T08:41:21.034Z,24.90
2023-10-24T08:42:23.259Z,27.20
2023-10-24T08:43:26.180Z,27.21
2023-10-24T08:44:28.557Z,26.84
2023-10-24T08:45:31.902Z,26.50
2023-10-24T08:46:34.050Z,26.29
2023-10-24T08:47:36.887Z,25.48
2023-10-24T08:48:38.685Z,25.76
2023-10-24T08:49:40.813Z,26.18
2023-10-24T08:50:44.020Z,26.02
2023-10-24T08:51:46.471Z,25.04
2023-10-24T08:52:48.175Z,25.89
2023-10-24T08:53:50.177Z,26.01
2023-10-24T08:54:52.693Z,24.93
2023-10-24T08:55:55.807Z,24.95
2023-10-24T08:56:58.242Z,25.31
2023-10-24T08:58:01.708Z,25.48
2023-10-24T08:59:05.977Z,25.40
2023-10-24T09:00:12.904Z,24.95
2023-10-24T09:01:14.994Z,25.86
2023-10-24T09:02:18.178Z,24.46
2023-10-24T09:03:20.040Z,24.51
2023-10-24T09:04:22.749Z,25.04
2023-10-24T09:05:29.000Z,26.23
2023-10-24T09:06:34.397Z,25.90
2023-10-24T09:07:37.103Z,24.62
2023-10-24T09:08:38.788Z,24.49
2023-10-24T09:09:40.444Z,24.75
2023-10-24T09:10:42.178Z,24.24
2023-10-24T09:11:58.289Z,24.49
2023-10-24T09:12:59.939Z,24.31
2023-10-24T09:14:01.582Z,23.99
2023-10-24T09:15:03.553Z,23.75
2023-10-24T09:16:07.590Z,23.25
2023-10-24T09:17:09.294Z,24.07
2023-10-24T09:18:11.184Z,23.41
2023-10-24T09:19:16.472Z,22.62
2023-10-24T09:20:20.141Z,22.85
2023-10-24T09:21:21.805Z,23.33
2023-10-24T09:22:24.036Z,22.80
2023-10-24T09:23:25.714Z,23.50
2023-10-24T09:24:27.517Z,22.71
2023-10-24T09:25:30.057Z,22.26
2023-10-24T09:26:31.689Z,22.54
2023-10-24T09:27:33.296Z,23.50
2023-10-24T09:28:35.298Z,22.94
2023-10-24T09:29:37.530Z,22.41
2023-10-24T09:30:40.684Z,22.84
2023-10-24T09:31:42.857Z,22.76
2023-10-24T09:32:45.445Z,22.89
2023-10-24T09:33:47.984Z,22.52
2023-10-24T09:34:49.995Z,22.49
2023-10-24T09:36:05.761Z,21.73
2023-10-24T09:37:18.113Z,22.78
2023-10-24T09:38:26.131Z,21.92
2023-10-24T09:39:27.732Z,21.41
2023-10-24T09:40:40.711Z,21.22
2023-10-24T09:41:43.940Z,22.13
2023-10-24T09:42:48.156Z,21.71
2023-10-24T09:43:49.905Z,24.10
2023-10-24T09:44:55.338Z,22.81
2023-10-24T09:45:57.703Z,22.39
2023-10-24T09:46:59.566Z,21.80
2023-10-24T09:48:02.188Z,22.13
2023-10-24T09:49:05.727Z,23.09
2023-10-24T09:50:09.206Z,21.66
2023-10-24T09:51:12.846Z,22.57
2023-10-24T09:52:18.114Z,22.04
2023-10-24T09:53:20.505Z,21.80
2023-10-24T09:54:23.292Z,22.44
2023-10-24T09:55:25.283Z,22.19
2023-10-24T09:56:29.073Z,21.97
2023-10-24T09:57:31.502Z,21.63
2023-10-24T09:58:35.847Z,21.40
2023-10-24T09:59:38.982Z,21.91
2023-10-24T10:00:40.883Z,21.29
2023-10-24T10:01:54.213Z,21.19
2023-10-24T10:03:04.603Z,20.70
2023-10-24T10:04:06.793Z,21.25
2023-10-24T10:05:08.944Z,21.19
2023-10-24T10:06:15.425Z,21.45
2023-10-24T10:07:18.812Z,22.13
2023-10-24T10:08:22.949Z,22.00
2023-10-24T10:09:24.622Z,21.77
2023-10-24T10:10:26.481Z,21.68
2023-10-24T10:11:29.072Z,21.22
2023-10-24T10:12:32.532Z,21.34
2023-10-24T10:13:39.748Z,21.46
2023-10-24T10:15:01.375Z,21.29
2023-10-24T10:16:21.611Z,21.52
2023-10-24T10:17:39.679Z,21.42
2023-10-24T10:19:15.954Z,21.40
2023-10-24T10:20:56.281Z,20.88
2023-10-24T10:22:23.774Z,21.55
2023-10-24T10:23:28.079Z,20.92
2023-10-24T10:24:38.839Z,21.51
2023-10-24T10:25:43.336Z,22.50
2023-10-24T10:27:22.533Z,21.66
2023-10-24T10:28:43.132Z,21.75
2023-10-24T10:30:25.853Z,21.92
2023-10-24T10:32:42.302Z,21.84
2023-10-24T10:33:22.824Z,22.24
2023-10-24T10:34:36.109Z,21.28
2023-10-24T10:36:09.467Z,21.68
2023-10-24T10:37:11.263Z,21.53
2023-10-24T10:38:12.923Z,22.07
2023-10-24T10:39:14.631Z,23.06
2023-10-24T10:40:16.284Z,22.44
2023-10-24T10:41:24.151Z,22.67
2023-10-24T10:42:51.212Z,22.75
2023-10-24T10:43:59.500Z,22.72
2023-10-24T10:45:27.231Z,23.23
2023-10-24T10:46:30.650Z,23.64
2023-10-24T10:47:32.345Z,23.26
2023-10-24T10:48:34.092Z,23.65
2023-10-24T10:49:40.315Z,24.40
2023-10-24T10:50:42.940Z,24.06
2023-10-24T10:51:44.641Z,24.06
2023-10-24T10:53:12.048Z,23.94
2023-10-24T10:54:44.236Z,25.03
2023-10-24T10:55:51.671Z,25.12
2023-10-24T10:56:58.379Z,23.38
2023-10-24T10:58:13.122Z,23.90
2023-10-24T10:59:58.788Z,24.67
2023-10-24T11:01:21.006Z,25.37
2023-10-24T11:02:56.090Z,24.87
2023-10-24T11:03:59.695Z,26.04
2023-10-24T11:05:02.976Z,26.38
2023-10-24T11:06:13.388Z,25.50
2023-10-24T11:07:15.072Z,25.31
2023-10-24T11:08:20.937Z,25.24
2023-10-24T11:09:43.698Z,25.26
2023-10-24T11:10:55.633Z,25.89
2023-10-24T11:12:22.089Z,25.77
2023-10-24T11:13:40.691Z,25.59
2023-10-24T11:14:42.779Z,25.85
2023-10-24T11:15:54.411Z,25.98
2023-10-24T11:16:56.447Z,25.83
2023-10-24T11:17:58.552Z,26.46
2023-10-24T11:19:00.168Z,26.75
2023-10-24T11:20:14.448Z,27.33
2023-10-24T11:21:23.427Z,25.78
2023-10-24T11:22:25.259Z,26.45
2023-10-24T11:23:29.640Z,26.60
2023-10-24T11:24:31.392Z,26.74
2023-10-24T11:25:33.273Z,27.06
2023-10-24T11:26:35.348Z,26.88
2023-10-24T11:27:37.214Z,26.99
2023-10-24T11:28:39.615Z,27.68
2023-10-24T11:29:41.514Z,27.08
2023-10-24T11:30:43.344Z,27.71
2023-10-24T11:31:48.367Z,28.19
2023-10-24T11:32:53.348Z,26.83
2023-10-24T11:33:57.926Z,26.95
2023-10-24T11:34:59.676Z,27.26
2023-10-24T11:36:01.762Z,27.78
2023-10-24T11:37:03.963Z,26.78
2023-10-24T11:38:05.792Z,26.90
2023-10-24T11:39:08.644Z,26.64
2023-10-24T11:40:10.747Z,26.47
2023-10-24T11:41:12.423Z,27.05
2023-10-24T11:42:14.649Z,27.32
2023-10-24T11:43:18.912Z,26.21
2023-10-24T11:44:22.532Z,27.21
2023-10-24T11:45:24.199Z,27.68
2023-10-24T11:46:26.102Z,27.62
2023-10-24T11:47:27.806Z,27.63
2023-10-24T11:48:29.432Z,26.38
2023-10-24T11:49:34.743Z,26.62
2023-10-24T11:50:46.936Z,27.35
2023-10-24T11:51:50.217Z,27.47
2023-10-24T11:52:51.969Z,27.22
2023-10-24T11:54:04.404Z,26.90
2023-10-24T11:55:07.880Z,26.73
2023-10-24T11:56:09.938Z,26.28
2023-10-24T11:57:12.462Z,26.29
2023-10-24T11:58:14.152Z,26.49
2023-10-24T11:59:15.887Z,26.98
2023-10-24T12:00:18.371Z,27.32
2023-10-24T12:01:20.680Z,27.46
2023-10-24T12:02:23.215Z,26.60
2023-10-24T12:03:25.100Z,27.27
2023-10-24T12:04:26.932Z,27.17
2023-10-24T12:05:28.508Z,26.71
2023-10-24T12:06:30.725Z,26.71
2023-10-24T12:07:33.659Z,26.40
2023-10-24T12:08:37.194Z,27.88
2023-10-24T12:09:38.803Z,26.91
2023-10-24T12:10:40.450Z,27.07
2023-10-24T12:11:42.056Z,27.66
2023-10-24T12:12:45.598Z,27.31
2023-10-24T12:13:48.060Z,28.49
2023-10-24T12:14:50.102Z,26.93
2023-10-24T12:15:52.158Z,26.67
2023-10-24T12:16:59.428Z,27.52
2023-10-24T12:18:05.495Z,27.66
2023-10-24T12:19:07.230Z,27.76
2023-10-24T12:20:09.448Z,27.92
2023-10-24T12:21:12.793Z,28.30
2023-10-24T12:22:14.648Z,27.65
2023-10-24T12:23:18.087Z,27.67
2023-10-24T12:24:19.722Z,28.06
2023-10-24T12:25:21.357Z,28.40
2023-10-24T12:26:23.570Z,28.30
2023-10-24T12:27:25.151Z,28.32
2023-10-24T12:28:26.775Z,28.54
2023-10-24T12:29:28.396Z,27.96
2023-10-24T12:30:30.094Z,29.00
2023-10-24T12:31:31.804Z,28.41
2023-10-24T12:32:33.576Z,28.40
2023-10-24T12:33:35.292Z,28.45
2023-10-24T12:34:37.033Z,28.99
2023-10-24T12:35:38.671Z,29.30
2023-10-24T12:36:40.444Z,28.94
2023-10-24T12:37:42.085Z,29.68
2023-10-24T12:38:43.718Z,28.92
2023-10-24T12:39:47.586Z,29.36
2023-10-24T12:40:49.236Z,29.56
2023-10-24T12:41:50.879Z,30.37
2023-10-24T12:42:53.826Z,29.69
2023-10-24T12:43:55.586Z,30.12
2023-10-24T12:44:57.265Z,29.84
2023-10-24T12:45:59.297Z,29.36
2023-10-24T12:47:01.820Z,30.38
2023-10-24T12:48:09.006Z,30.10
2023-10-24T12:49:10.922Z,30.02
2023-10-24T12:50:12.577Z,29.29
2023-10-24T12:51:14.814Z,30.49
2023-10-24T12:52:16.479Z,29.40
2023-10-24T12:53:19.005Z,29.54
2023-10-24T12:54:20.608Z,30.84
2023-10-24T12:55:23.226Z,30.25
2023-10-24T12:56:24.810Z,29.79
2023-10-24T12:57:26.642Z,30.84
2023-10-24T12:58:28.271Z,29.94
2023-10-24T12:59:30.448Z,30.14
2023-10-24T13:00:33.049Z,30.86
2023-10-24T13:01:34.798Z,30.88
2023-10-24T13:02:36.544Z,30.31
2023-10-24T13:03:38.757Z,30.64
2023-10-24T13:04:42.018Z,30.07
2023-10-24T13:05:47.883Z,29.83
2023-10-24T13:06:54.982Z,30.48
2023-10-24T13:07:58.833Z,30.05
2023-10-24T13:09:02.371Z,30.57
2023-10-24T13:10:04.391Z,29.83
2023-10-24T13:11:06.191Z,30.60
2023-10-24T13:12:09.272Z,30.94
2023-10-24T13:13:10.846Z,30.82
2023-10-24T13:14:13.376Z,30.25
2023-10-24T13:15:15.011Z,30.37
2023-10-24T13:16:17.581Z,30.94
2023-10-24T13:17:19.426Z,31.19
2023-10-24T13:18:21.125Z,30.71
2023-10-24T13:19:22.939Z,30.86
2023-10-24T13:20:24.698Z,31.14
2023-10-24T13:21:26.401Z,30.99
2023-10-24T13:22:28.036Z,31.05
2023-10-24T13:23:29.596Z,30.64
2023-10-24T13:24:32.657Z,31.99
2023-10-24T13:25:36.298Z,32.23
2023-10-24T13:26:37.985Z,31.05
2023-10-24T13:27:39.626Z,31.31
2023-10-24T13:28:41.656Z,31.34
2023-10-24T13:29:43.478Z,31.16
2023-10-24T13:30:58.387Z,30.67
2023-10-24T13:32:07.807Z,30.88
2023-10-24T13:33:09.469Z,30.78
2023-10-24T13:34:49.406Z,31.04
2023-10-24T13:36:38.107Z,31.58